Las Vegas, Nevada (DRI) Weather observations

Data are for observation ending at time listed.
 Day   Time    Ave.   Ave.  Ave.  Vector   Max.   Stn.    Total    Solar   Ave.  
  of    of     Air    Rel.  Wind   Wind    Wind   Baro.  Precip.   Rad.    Soil  
Year   Day     Temp.  Hum.  Speed  Dir.    Gust   Pres.                    Temp. 
2014   (PST)    F      %     mph   deg.    mph     mb.     in.     W/m2     F   
------------------------------------------------------------------------------
 107    4:00   68.2    19    0.9    13      2.1   939.2    0.00       0    79.1
 107    4:10   67.8    20    0.1    30      0.6   939.3    0.00       0    78.9
 107    4:20   66.8    20    0.0     0      0.0   939.3    0.00       0    78.9
 107    4:30   66.2    21    0.3     9      1.5   939.4    0.00       0    78.8
 107    4:40   66.5    21    0.2   355      1.2   939.5    0.00       0    78.7
 107    4:50   66.5    21    0.3   340      1.5   939.7    0.00       0    78.6
 107    5:00   66.3    22    0.2     0      1.0   939.8    0.00       2    78.5
 107    5:10   66.0    22    0.0    64      0.5   940.0    0.00       4    78.4
 107    5:20   66.0    22    0.3    60      1.4   940.1    0.00      10    78.3
 107    5:30   65.8    23    0.1    30      0.8   940.2    0.00      16    78.2
 107    5:40   66.1    23    0.2    35      1.6   940.3    0.00      20    78.1
 107    5:50   66.3    23    0.0    39      1.1   940.5    0.00      25    78.0
 107    6:00   66.3    23    0.5    28      2.5   940.7    0.00      25    77.8
 107    6:10   67.4    21    1.3    52      2.7   940.8    0.00      30    77.7
 107    6:20   67.4    22    0.1    76      1.2   941.1    0.00      32    77.6
 107    6:30   67.4    21    0.4    58      2.9   941.2    0.00      32    77.5
 107    6:40   67.4    22    0.6    64      2.7   941.3    0.00      34    77.4
 107    6:50   67.9    22    1.5    50      3.7   941.4    0.00      38    77.3
 107    7:00   68.6    21    0.9    64      3.2   941.4    0.00      39    77.2
 107    7:10   69.0    21    1.1    62      3.2   941.5    0.00      39    77.1
 107    7:20   69.4    20    2.1    61      3.9   941.5    0.00      39    77.0
 107    7:30   70.0    20    2.2    60      4.5   941.5    0.00      44    76.9
 107    7:40   70.2    19    1.9    59      5.0   941.6    0.00      55    76.9
 107    7:50   70.9    19    2.0    51      4.1   941.7    0.00     110    76.8
 107    8:00   71.3    19    1.3    57      4.7   941.7    0.00     134    76.7
 107    8:10   72.1    18    1.1   179      3.4   941.7    0.00     292    76.6
 107    8:20   72.7    17    0.7   183      3.1   941.7    0.00      87    76.5
 107    8:30   73.5    16    2.4    42      5.6   941.7    0.00     422    76.4
 107    8:40   73.8    16    1.8    54      5.4   941.7    0.00     494    76.3
 107    8:50   74.4    16    1.7    54      4.3   941.7    0.00     756    76.3
 107    9:00   75.4    15    1.6    46      4.9   941.8    0.00     811    76.2
 107    9:10   76.2    15    2.2    45      5.3   941.8    0.00     839    76.1
 107    9:20   76.6    15    2.5    39      6.4   941.7    0.00     864    76.1
 107    9:30   77.2    14    2.9    45      6.0   941.6    0.00     887    76.0
 107    9:40   77.5    14    1.5    57      4.3   941.6    0.00     919    75.9
 107    9:50   79.0    14    2.0   107      6.0   941.5    0.00     939    75.9
 107   10:00   80.0    14    2.0   186      6.9   941.5    0.00     954    75.8
 107   10:10   80.0    13    2.1    64      5.3   941.3    0.00     961    75.8
 107   10:20   81.0    13    2.4    49      7.4   941.2    0.00     992    75.7
 107   10:30   81.3    13    2.2    79      5.8   941.1    0.00    1017    75.7
 107   10:40   81.4    13    2.1   121      6.6   941.0    0.00    1034    75.7
 107   10:50   82.2    13    2.0    70      6.7   940.9    0.00    1032    75.7
 107   11:00   82.8    12    1.9    49      6.3   940.7    0.00    1047    75.8
 107   11:10   83.6    12    1.6   153      5.2   940.7    0.00    1053    75.8
 107   11:20   83.7    12    1.9    58      5.2   940.6    0.00    1055    75.9
 107   11:30   84.2    12    2.2    46      6.5   940.4    0.00    1060    76.0
 107   11:40   85.0    12    2.4    39      6.6   940.2    0.00    1063    76.1
 107   11:50   85.1    12    2.7   163      8.0   940.1    0.00    1064    76.3
 107   12:00   84.6    12    2.0    36      5.5   939.9    0.00    1064    76.4
 107   12:10   85.8    11    2.7    37      6.4   939.7    0.00    1062    76.7
 107   12:20   86.5    11    1.9   155      5.8   939.5    0.00    1057    76.9
 107   12:30   86.8    11    1.9    16      6.9   939.3    0.00    1051    77.0
 107   12:40   87.5    11    2.8    36     10.6   939.1    0.00    1041    77.3
 107   12:50   88.0    11    3.7    40      7.3   939.0    0.00    1026    77.6
 107   13:00   88.3    10    2.1    44      5.5   938.9    0.00     989    77.8
 107   13:10   88.6    11    2.5     6      5.1   938.6    0.00     961    78.0
 107   13:20   88.4    11    3.0    37      6.6   938.4    0.00     955    78.3
 107   13:30   89.8    10    3.1    68      8.0   938.2    0.00     912    78.6
 107   13:40   91.0    10    1.8    56      8.1   938.0    0.00     843    78.8
 107   13:50   91.8    10    2.5    21      7.1   937.7    0.00     857    79.1
 107   14:00   91.0    10    3.9    48     10.6   937.5    0.00     811    79.4
 107   14:10   90.8    10    2.3    39      6.6   937.3    0.00     630    79.6
 107   14:20   92.5    10    1.5   179      5.8   937.2    0.00     704    79.9
 107   14:30   91.1    10    4.4   197     10.8   936.9    0.00     595    80.3
 107   14:40   90.7    10    3.9   186     13.1   936.8    0.00     722    80.5
 107   14:50   92.2     9    2.0   176      5.8   936.6    0.00     746    80.8
 107   15:00   91.8     9    5.0   193     10.5   936.4    0.00     724    81.1
 107   15:10   91.5     9    5.2   189     11.9   936.2    0.00     678    81.3
 107   15:20   91.6     9    6.6   187     13.5   936.1    0.00     653    81.6
 107   15:30   91.1     9    8.0   181     15.2   936.0    0.00     612    81.8
 107   15:40   90.8     9    8.3   187     16.5   936.0    0.00     539    82.1
 107   15:50   90.3     9    9.7   184     22.4   935.9    0.00     474    82.3
 107   16:00   90.1     9    7.7   172     18.8   935.8    0.00     365    82.5
 107   16:10   89.6     9    8.3   175     16.4   935.8    0.00     236    82.7
 107   16:20   89.2     9   11.0   172     19.4   935.8    0.00     284    82.9
 107   16:30   89.3     9    9.1   173     16.0   935.8    0.00     364    83.1
 107   16:40   89.6     9    7.6   177     18.6   935.9    0.00     264    83.3
 107   16:50   88.8     9    9.6   173     17.6   935.8    0.00     183    83.5
 107   17:00   88.5     9    8.2   174     16.8   935.9    0.00     122    83.6
 107   17:10   88.0     9   10.7   172     20.8   935.9    0.00     103    83.8
 107   17:20   87.8     9    9.3   177     16.4   936.1    0.00     128    83.9
 107   17:30   87.1     9   11.0   178     20.1   936.1    0.00      87    84.0
 107   17:40   86.5     9   10.6   177     20.9   936.2    0.00      60    84.1
 107   17:50   86.0     9   11.5   175     18.3   936.2    0.00      45    84.1
 107   18:00   85.7     9   10.6   176     18.4   936.4    0.00      23    84.2
 107   18:10   85.4    10    9.0   178     14.4   936.4    0.00       9    84.3
 107   18:20   85.1    10    9.2   173     16.1   936.5    0.00       3    84.3
 107   18:30   84.7    10    9.8   172     16.8   936.6    0.00       3    84.4
 107   18:40   84.3    10    8.7   175     13.1   936.7    0.00       1    84.4
 107   18:50   84.0    10    8.7   171     16.6   936.9    0.00       1    84.4
 107   19:00   83.6    10    9.7   176     16.3   936.9    0.00       1    84.4
 107   19:10   83.2    11    9.8   176     20.2   937.1    0.00       1    84.4
 107   19:20   82.9    11    9.3   181     17.8   937.2    0.00       1    84.4
 107   19:30   82.6    11   10.6   179     17.3   937.4    0.00       1    84.4
 107   19:40   82.4    11   10.9   174     18.9   937.4    0.00       0    84.3
 107   19:50   82.2    11    8.4   173     16.4   937.6    0.00       0    84.3
 107   20:00   81.8    11    4.7   170     13.0   937.7    0.00       0    84.3
 107   20:10   81.5    11    6.1   172     10.1   937.8    0.00       0    84.2
 107   20:20   81.1    11    4.7   172     11.2   937.9    0.00       0    84.2
 107   20:30   80.5    12    2.0   174      8.0   938.0    0.00       0    84.1
 107   20:40   80.3    12    2.1   172      9.9   938.0    0.00       0    84.1
 107   20:50   80.1    12    4.2   175     11.8   938.1    0.00       0    84.0
 107   21:00   80.2    12    5.5   174     11.3   938.0    0.00       0    83.9
 107   21:10   79.8    12    5.4   173     10.8   938.0    0.00       0    83.8
 107   21:20   79.6    12    4.8   175      9.9   938.0    0.00       0    83.8
 107   21:30   79.3    12    3.7   190      7.5   938.0    0.00       0    83.7
 107   21:40   78.9    12    3.0   177      8.9   938.1    0.00       0    83.6
 107   21:50   78.5    13    0.7    88      4.5   938.1    0.00       0    83.6
 107   22:00   78.1    13    0.4    33      1.7   938.0    0.00       0    83.5
 107   22:10   77.8    13    0.3    10      1.4   938.0    0.00       0    83.4
 107   22:20   77.5    13    0.2   268      1.6   938.0    0.00       0    83.3
 107   22:30   76.6    14    0.1   206      1.2   938.0    0.00       0    83.2
 107   22:40   76.1    15    0.1   134      0.8   938.0    0.00       0    83.2
 107   22:50   76.0    15    0.2   152      1.4   938.1    0.00       0    83.1
 107   23:00   76.1    14    0.3    39      1.8   938.1    0.00       0    83.0
 107   23:10   75.5    15    0.3   206      1.7   938.1    0.00       0    82.9
 107   23:20   74.9    17    0.0     0      0.0   938.1    0.00       0    82.8
 107   23:30   74.5    17    0.0     0      0.0   938.1    0.00       0    82.8
 107   23:40   74.2    18    0.3   212      2.9   938.1    0.00       0    82.7
 107   23:50   74.1    18    0.4   219      1.9   938.1    0.00       0    82.6
 108    0:00   74.9    16    0.2   207      1.4   938.0    0.00       0    82.5
 108    0:10   74.5    18    0.0   207      0.9   937.9    0.00       0    82.4
 108    0:20   74.2    17    0.2   152      1.0   937.9    0.00       0    82.3
 108    0:30   74.0    18    0.2   176      1.3   937.8    0.00       0    82.2
 108    0:40   73.7    18    0.1   191      1.0   937.6    0.00       0    82.1
 108    0:50   73.7    17    0.1   163      1.2   937.6    0.00       0    82.1
 108    1:00   74.8    14    1.3   169      3.7   937.5    0.00       0    82.0
 108    1:10   75.5    14    0.3   176      2.9   937.4    0.00       0    81.9
 108    1:20   75.1    14    0.2   151      1.6   937.4    0.00       0    81.8
 108    1:30   74.2    15    0.9   189      3.4   937.4    0.00       0    81.7
 108    1:40   73.4    16    0.9   186      3.4   937.4    0.00       0    81.6
 108    1:50   73.2    16    0.8   175      3.9   937.4    0.00       0    81.5
 108    2:00   73.1    16    1.6   203      2.9   937.4    0.00       0    81.4
 108    2:10   72.9    15    1.5   192      2.0   937.4    0.00       0    81.3
 108    2:20   73.0    15    1.2   199      2.3   937.5    0.00       0    81.2
 108    2:30   73.6    14    1.6   180      3.0   937.5    0.00       0    81.1
 108    2:40   73.8    14    1.9   171      3.2   937.5    0.00       0    81.0
 108    2:50   73.6    14    1.4   171      3.2   937.5    0.00       0    80.9
 108    3:00   73.1    14    1.0   170      3.1   937.4    0.00       0    80.8
 108    3:10   72.4    15    0.6   208      1.9   937.4    0.00       0    80.7
 108    3:20   72.3    14    0.8   186      2.3   937.4    0.00       0    80.7
 108    3:30   72.9    14    0.5   117      2.1   937.4    0.00       0    80.6
 108    3:40   72.1    15    0.8    44      2.6   937.6    0.00       0    80.5
 108    3:50   71.9    15    0.7    48      3.8   937.5    0.00       0    80.4

Return to Las Vegas, Nevada graphs page.


Western Regional Climate Center,wrcc@dri.edu